Terminal Aerodrome Forecast
Issued by NWS

Home | Current Version | Previous Version | Graphics & Text | Print | Product List | Glossary On
Versions: 1 2 3 4 5 6 7 8 9 10 11 12 13 14 15 16
000
FTUS43 KMPX 031731
TAFRNH
TAF
KRNH 031731Z 0318/0418 28010KT 2SM -SN BR SCT009 BKN015 BKN040
     FM032000 29012G22KT 3SM BLSN BKN015
      TEMPO 0320/0324 5SM BLSN BKN025
     FM040000 31018G28KT 6SM BLSN FEW020 BKN090
     FM040300 30012G23KT P6SM SKC
     FM040700 29010KT P6SM SKC=

USA.gov is the U.S. government's official web portal to all federal, state and local government web resources and services.